sensor_id;sensor_type;location;lat;lon;timestamp;P1;durP1;ratioP1;P2;durP2;ratioP2
6105;SDS011;3083;51.508;7.966;2022-09-16T00:02:03;5.93;;;2.40;;
6105;SDS011;3083;51.508;7.966;2022-09-16T00:04:29;6.27;;;2.57;;
6105;SDS011;3083;51.508;7.966;2022-09-16T00:06:56;7.43;;;3.37;;
6105;SDS011;3083;51.508;7.966;2022-09-16T00:09:25;7.43;;;3.00;;
6105;SDS011;3083;51.508;7.966;2022-09-16T00:11:51;8.33;;;3.40;;
6105;SDS011;3083;51.508;7.966;2022-09-16T00:14:18;7.50;;;3.57;;
6105;SDS011;3083;51.508;7.966;2022-09-16T00:16:45;9.10;;;3.33;;
6105;SDS011;3083;51.508;7.966;2022-09-16T00:19:12;8.47;;;4.17;;
6105;SDS011;3083;51.508;7.966;2022-09-16T00:21:39;10.93;;;4.60;;
6105;SDS011;3083;51.508;7.966;2022-09-16T00:24:06;11.23;;;5.20;;
6105;SDS011;3083;51.508;7.966;2022-09-16T00:26:38;9.90;;;4.97;;
6105;SDS011;3083;51.508;7.966;2022-09-16T00:29:05;17.23;;;5.80;;
6105;SDS011;3083;51.508;7.966;2022-09-16T00:31:32;9.13;;;5.17;;
6105;SDS011;3083;51.508;7.966;2022-09-16T00:33:59;11.00;;;5.53;;
6105;SDS011;3083;51.508;7.966;2022-09-16T00:36:26;9.57;;;5.77;;
6105;SDS011;3083;51.508;7.966;2022-09-16T00:38:54;10.53;;;5.43;;
6105;SDS011;3083;51.508;7.966;2022-09-16T00:41:21;12.37;;;5.40;;
6105;SDS011;3083;51.508;7.966;2022-09-16T00:43:52;8.50;;;5.20;;
6105;SDS011;3083;51.508;7.966;2022-09-16T00:46:23;11.40;;;5.40;;
6105;SDS011;3083;51.508;7.966;2022-09-16T00:48:57;8.97;;;5.20;;
6105;SDS011;3083;51.508;7.966;2022-09-16T00:51:29;12.07;;;5.60;;
6105;SDS011;3083;51.508;7.966;2022-09-16T00:53:57;10.33;;;4.80;;
6105;SDS011;3083;51.508;7.966;2022-09-16T00:56:27;10.47;;;5.23;;
6105;SDS011;3083;51.508;7.966;2022-09-16T00:58:59;8.97;;;5.03;;
6105;SDS011;3083;51.508;7.966;2022-09-16T01:01:30;10.33;;;5.70;;
6105;SDS011;3083;51.508;7.966;2022-09-16T01:03:58;11.00;;;5.60;;
6105;SDS011;3083;51.508;7.966;2022-09-16T01:06:28;9.17;;;5.10;;
6105;SDS011;3083;51.508;7.966;2022-09-16T01:08:57;9.90;;;4.57;;
6105;SDS011;3083;51.508;7.966;2022-09-16T01:11:25;11.50;;;4.07;;
6105;SDS011;3083;51.508;7.966;2022-09-16T01:13:52;8.83;;;4.77;;
6105;SDS011;3083;51.508;7.966;2022-09-16T01:16:22;10.53;;;5.10;;
6105;SDS011;3083;51.508;7.966;2022-09-16T01:18:54;6.73;;;4.23;;
6105;SDS011;3083;51.508;7.966;2022-09-16T01:21:32;12.73;;;4.77;;
6105;SDS011;3083;51.508;7.966;2022-09-16T01:24:15;11.90;;;4.60;;
6105;SDS011;3083;51.508;7.966;2022-09-16T01:32:47;6.60;;;4.30;;
6105;SDS011;3083;51.508;7.966;2022-09-16T01:35:24;6.37;;;4.17;;
6105;SDS011;3083;51.508;7.966;2022-09-16T01:38:00;9.80;;;4.30;;
6105;SDS011;3083;51.508;7.966;2022-09-16T01:40:38;10.77;;;4.57;;
6105;SDS011;3083;51.508;7.966;2022-09-16T01:43:12;10.00;;;4.33;;
6105;SDS011;3083;51.508;7.966;2022-09-16T01:45:45;7.83;;;4.30;;
6105;SDS011;3083;51.508;7.966;2022-09-16T01:48:20;10.17;;;3.90;;
6105;SDS011;3083;51.508;7.966;2022-09-16T01:50:55;7.20;;;4.27;;
6105;SDS011;3083;51.508;7.966;2022-09-16T01:53:27;9.37;;;3.90;;
6105;SDS011;3083;51.508;7.966;2022-09-16T01:55:59;10.30;;;4.57;;
6105;SDS011;3083;51.508;7.966;2022-09-16T01:58:33;11.20;;;4.63;;
6105;SDS011;3083;51.508;7.966;2022-09-16T02:01:05;9.07;;;4.60;;
6105;SDS011;3083;51.508;7.966;2022-09-16T02:03:38;12.00;;;5.00;;
6105;SDS011;3083;51.508;7.966;2022-09-16T02:06:08;12.60;;;4.60;;
6105;SDS011;3083;51.508;7.966;2022-09-16T02:08:39;9.13;;;4.80;;
6105;SDS011;3083;51.508;7.966;2022-09-16T02:11:11;9.47;;;4.23;;
6105;SDS011;3083;51.508;7.966;2022-09-16T02:13:41;8.60;;;4.37;;
6105;SDS011;3083;51.508;7.966;2022-09-16T02:16:12;10.53;;;5.23;;
6105;SDS011;3083;51.508;7.966;2022-09-16T02:18:45;12.10;;;4.70;;
6105;SDS011;3083;51.508;7.966;2022-09-16T02:21:18;10.47;;;4.70;;
6105;SDS011;3083;51.508;7.966;2022-09-16T02:23:47;11.40;;;4.23;;
6105;SDS011;3083;51.508;7.966;2022-09-16T02:26:18;12.17;;;4.40;;
6105;SDS011;3083;51.508;7.966;2022-09-16T02:28:49;11.60;;;4.87;;
6105;SDS011;3083;51.508;7.966;2022-09-16T02:31:19;9.40;;;4.10;;
6105;SDS011;3083;51.508;7.966;2022-09-16T02:33:52;8.10;;;5.87;;
6105;SDS011;3083;51.508;7.966;2022-09-16T02:36:22;6.90;;;4.43;;
6105;SDS011;3083;51.508;7.966;2022-09-16T02:38:52;12.37;;;4.37;;
6105;SDS011;3083;51.508;7.966;2022-09-16T02:41:22;8.37;;;5.07;;
6105;SDS011;3083;51.508;7.966;2022-09-16T02:43:49;8.33;;;4.73;;
6105;SDS011;3083;51.508;7.966;2022-09-16T02:46:18;10.43;;;5.20;;
6105;SDS011;3083;51.508;7.966;2022-09-16T02:48:56;8.90;;;4.50;;
6105;SDS011;3083;51.508;7.966;2022-09-16T02:51:31;8.30;;;5.00;;
6105;SDS011;3083;51.508;7.966;2022-09-16T02:54:04;8.47;;;4.77;;
6105;SDS011;3083;51.508;7.966;2022-09-16T02:56:37;8.80;;;4.47;;
6105;SDS011;3083;51.508;7.966;2022-09-16T02:59:05;10.50;;;4.50;;
6105;SDS011;3083;51.508;7.966;2022-09-16T03:01:39;8.30;;;4.70;;
6105;SDS011;3083;51.508;7.966;2022-09-16T03:04:08;9.23;;;4.70;;
6105;SDS011;3083;51.508;7.966;2022-09-16T03:06:36;10.47;;;4.23;;
6105;SDS011;3083;51.508;7.966;2022-09-16T03:09:05;8.90;;;4.57;;
6105;SDS011;3083;51.508;7.966;2022-09-16T03:11:41;15.13;;;4.60;;
6105;SDS011;3083;51.508;7.966;2022-09-16T03:17:24;6.53;;;4.00;;
6105;SDS011;3083;51.508;7.966;2022-09-16T03:20:03;13.00;;;4.53;;
6105;SDS011;3083;51.508;7.966;2022-09-16T03:22:41;10.53;;;4.47;;
6105;SDS011;3083;51.508;7.966;2022-09-16T03:25:17;7.60;;;4.30;;
6105;SDS011;3083;51.508;7.966;2022-09-16T03:27:54;10.67;;;4.77;;
6105;SDS011;3083;51.508;7.966;2022-09-16T03:30:27;11.00;;;4.60;;
6105;SDS011;3083;51.508;7.966;2022-09-16T03:32:59;9.20;;;4.77;;
6105;SDS011;3083;51.508;7.966;2022-09-16T03:35:33;11.13;;;4.60;;
6105;SDS011;3083;51.508;7.966;2022-09-16T03:38:08;6.90;;;4.37;;
6105;SDS011;3083;51.508;7.966;2022-09-16T03:40:38;8.40;;;3.90;;
6105;SDS011;3083;51.508;7.966;2022-09-16T03:43:10;9.40;;;4.07;;
6105;SDS011;3083;51.508;7.966;2022-09-16T03:45:38;8.47;;;3.63;;
6105;SDS011;3083;51.508;7.966;2022-09-16T03:48:07;13.03;;;3.70;;
6105;SDS011;3083;51.508;7.966;2022-09-16T03:50:35;12.97;;;3.83;;
6105;SDS011;3083;51.508;7.966;2022-09-16T03:53:02;10.67;;;3.60;;
6105;SDS011;3083;51.508;7.966;2022-09-16T03:55:29;8.33;;;3.60;;
6105;SDS011;3083;51.508;7.966;2022-09-16T03:57:56;9.47;;;3.87;;
6105;SDS011;3083;51.508;7.966;2022-09-16T04:00:23;9.27;;;4.07;;
6105;SDS011;3083;51.508;7.966;2022-09-16T04:02:50;7.97;;;2.90;;
6105;SDS011;3083;51.508;7.966;2022-09-16T04:05:17;9.10;;;3.87;;
6105;SDS011;3083;51.508;7.966;2022-09-16T04:07:46;10.73;;;3.10;;
6105;SDS011;3083;51.508;7.966;2022-09-16T04:10:13;7.13;;;3.23;;
6105;SDS011;3083;51.508;7.966;2022-09-16T04:12:41;10.97;;;3.13;;
6105;SDS011;3083;51.508;7.966;2022-09-16T04:15:08;6.60;;;2.93;;
6105;SDS011;3083;51.508;7.966;2022-09-16T04:17:36;6.90;;;3.07;;
6105;SDS011;3083;51.508;7.966;2022-09-16T04:20:03;13.07;;;3.50;;
6105;SDS011;3083;51.508;7.966;2022-09-16T04:22:31;10.37;;;3.17;;
6105;SDS011;3083;51.508;7.966;2022-09-16T04:24:59;7.60;;;3.20;;
6105;SDS011;3083;51.508;7.966;2022-09-16T04:27:26;9.93;;;4.43;;
6105;SDS011;3083;51.508;7.966;2022-09-16T04:29:53;9.80;;;2.70;;
6105;SDS011;3083;51.508;7.966;2022-09-16T04:32:20;13.73;;;3.17;;
6105;SDS011;3083;51.508;7.966;2022-09-16T04:34:47;11.30;;;3.20;;
6105;SDS011;3083;51.508;7.966;2022-09-16T04:37:14;7.27;;;3.20;;
6105;SDS011;3083;51.508;7.966;2022-09-16T04:39:41;11.57;;;3.47;;
6105;SDS011;3083;51.508;7.966;2022-09-16T04:42:09;8.10;;;2.63;;
6105;SDS011;3083;51.508;7.966;2022-09-16T04:44:37;8.93;;;2.73;;
6105;SDS011;3083;51.508;7.966;2022-09-16T04:47:04;13.67;;;3.10;;
6105;SDS011;3083;51.508;7.966;2022-09-16T04:49:31;9.77;;;2.97;;
6105;SDS011;3083;51.508;7.966;2022-09-16T04:51:58;7.67;;;3.27;;
6105;SDS011;3083;51.508;7.966;2022-09-16T04:54:25;6.60;;;3.10;;
6105;SDS011;3083;51.508;7.966;2022-09-16T04:56:51;8.33;;;3.30;;
6105;SDS011;3083;51.508;7.966;2022-09-16T04:59:20;7.37;;;2.80;;
6105;SDS011;3083;51.508;7.966;2022-09-16T05:01:47;6.43;;;3.00;;
6105;SDS011;3083;51.508;7.966;2022-09-16T05:04:14;8.93;;;3.00;;
6105;SDS011;3083;51.508;7.966;2022-09-16T05:06:41;9.13;;;3.33;;
6105;SDS011;3083;51.508;7.966;2022-09-16T05:09:09;6.70;;;3.27;;
6105;SDS011;3083;51.508;7.966;2022-09-16T05:11:37;15.13;;;3.10;;
6105;SDS011;3083;51.508;7.966;2022-09-16T05:14:06;7.00;;;3.03;;
6105;SDS011;3083;51.508;7.966;2022-09-16T05:16:42;5.37;;;2.97;;
6105;SDS011;3083;51.508;7.966;2022-09-16T05:19:10;7.00;;;2.70;;
6105;SDS011;3083;51.508;7.966;2022-09-16T05:21:38;7.67;;;3.10;;
6105;SDS011;3083;51.508;7.966;2022-09-16T05:24:06;7.50;;;3.40;;
6105;SDS011;3083;51.508;7.966;2022-09-16T05:26:35;10.33;;;3.07;;
6105;SDS011;3083;51.508;7.966;2022-09-16T05:29:04;10.80;;;3.30;;
6105;SDS011;3083;51.508;7.966;2022-09-16T05:31:34;8.57;;;3.10;;
6105;SDS011;3083;51.508;7.966;2022-09-16T05:34:03;7.50;;;3.07;;
6105;SDS011;3083;51.508;7.966;2022-09-16T05:36:32;7.33;;;2.63;;
6105;SDS011;3083;51.508;7.966;2022-09-16T05:39:01;5.13;;;2.93;;
6105;SDS011;3083;51.508;7.966;2022-09-16T05:41:28;6.13;;;2.97;;
6105;SDS011;3083;51.508;7.966;2022-09-16T05:43:56;8.07;;;3.20;;
6105;SDS011;3083;51.508;7.966;2022-09-16T05:46:24;7.90;;;3.20;;
6105;SDS011;3083;51.508;7.966;2022-09-16T05:48:51;8.53;;;3.20;;
6105;SDS011;3083;51.508;7.966;2022-09-16T05:51:21;7.30;;;3.20;;
6105;SDS011;3083;51.508;7.966;2022-09-16T05:53:49;9.90;;;3.90;;
6105;SDS011;3083;51.508;7.966;2022-09-16T05:56:18;12.20;;;3.50;;
6105;SDS011;3083;51.508;7.966;2022-09-16T05:58:46;7.40;;;3.53;;
6105;SDS011;3083;51.508;7.966;2022-09-16T06:01:15;10.80;;;4.10;;
6105;SDS011;3083;51.508;7.966;2022-09-16T06:03:44;6.67;;;3.70;;
6105;SDS011;3083;51.508;7.966;2022-09-16T06:06:13;9.77;;;3.90;;
6105;SDS011;3083;51.508;7.966;2022-09-16T06:08:45;8.43;;;3.77;;
6105;SDS011;3083;51.508;7.966;2022-09-16T06:11:12;13.60;;;3.77;;
6105;SDS011;3083;51.508;7.966;2022-09-16T06:13:39;11.70;;;4.27;;
6105;SDS011;3083;51.508;7.966;2022-09-16T06:16:07;11.67;;;4.30;;
6105;SDS011;3083;51.508;7.966;2022-09-16T06:18:35;12.93;;;3.30;;
6105;SDS011;3083;51.508;7.966;2022-09-16T06:21:04;5.40;;;3.10;;
6105;SDS011;3083;51.508;7.966;2022-09-16T06:23:32;7.20;;;3.30;;
6105;SDS011;3083;51.508;7.966;2022-09-16T06:26:01;10.70;;;4.10;;
6105;SDS011;3083;51.508;7.966;2022-09-16T06:28:29;6.83;;;3.60;;
6105;SDS011;3083;51.508;7.966;2022-09-16T06:31:00;7.20;;;4.17;;
6105;SDS011;3083;51.508;7.966;2022-09-16T06:33:29;9.13;;;3.63;;
6105;SDS011;3083;51.508;7.966;2022-09-16T06:35:56;12.70;;;4.17;;
6105;SDS011;3083;51.508;7.966;2022-09-16T06:38:23;10.50;;;4.30;;
6105;SDS011;3083;51.508;7.966;2022-09-16T06:40:50;8.23;;;3.70;;
6105;SDS011;3083;51.508;7.966;2022-09-16T06:43:18;10.83;;;4.40;;
6105;SDS011;3083;51.508;7.966;2022-09-16T06:45:45;11.77;;;4.27;;
6105;SDS011;3083;51.508;7.966;2022-09-16T06:48:12;8.30;;;3.60;;
6105;SDS011;3083;51.508;7.966;2022-09-16T06:50:39;6.40;;;3.60;;
6105;SDS011;3083;51.508;7.966;2022-09-16T06:53:06;6.23;;;3.30;;
6105;SDS011;3083;51.508;7.966;2022-09-16T06:55:33;5.77;;;3.27;;
6105;SDS011;3083;51.508;7.966;2022-09-16T06:58:00;5.43;;;3.30;;
6105;SDS011;3083;51.508;7.966;2022-09-16T07:00:28;5.27;;;2.90;;
6105;SDS011;3083;51.508;7.966;2022-09-16T07:02:55;7.83;;;2.70;;
6105;SDS011;3083;51.508;7.966;2022-09-16T07:05:22;4.23;;;2.53;;
6105;SDS011;3083;51.508;7.966;2022-09-16T07:07:49;4.53;;;2.17;;
6105;SDS011;3083;51.508;7.966;2022-09-16T07:10:17;4.50;;;2.00;;
6105;SDS011;3083;51.508;7.966;2022-09-16T07:12:44;3.70;;;2.10;;
6105;SDS011;3083;51.508;7.966;2022-09-16T07:15:10;5.60;;;2.20;;
6105;SDS011;3083;51.508;7.966;2022-09-16T07:17:39;5.00;;;2.87;;
6105;SDS011;3083;51.508;7.966;2022-09-16T07:20:06;7.00;;;2.80;;
6105;SDS011;3083;51.508;7.966;2022-09-16T07:22:33;5.97;;;3.10;;
6105;SDS011;3083;51.508;7.966;2022-09-16T07:25:00;11.67;;;4.20;;
6105;SDS011;3083;51.508;7.966;2022-09-16T07:27:27;7.23;;;4.37;;
6105;SDS011;3083;51.508;7.966;2022-09-16T07:29:55;9.93;;;5.00;;
6105;SDS011;3083;51.508;7.966;2022-09-16T07:32:22;7.90;;;4.40;;
6105;SDS011;3083;51.508;7.966;2022-09-16T07:34:50;7.83;;;5.23;;
6105;SDS011;3083;51.508;7.966;2022-09-16T07:37:18;9.00;;;4.90;;
6105;SDS011;3083;51.508;7.966;2022-09-16T07:39:46;8.87;;;5.00;;
6105;SDS011;3083;51.508;7.966;2022-09-16T07:42:13;6.83;;;4.57;;
6105;SDS011;3083;51.508;7.966;2022-09-16T07:44:40;8.50;;;4.40;;
6105;SDS011;3083;51.508;7.966;2022-09-16T07:47:07;8.67;;;4.83;;
6105;SDS011;3083;51.508;7.966;2022-09-16T07:49:34;9.40;;;5.03;;
6105;SDS011;3083;51.508;7.966;2022-09-16T07:52:02;9.93;;;4.90;;
6105;SDS011;3083;51.508;7.966;2022-09-16T07:54:29;10.80;;;5.60;;
6105;SDS011;3083;51.508;7.966;2022-09-16T07:56:56;10.30;;;5.90;;
6105;SDS011;3083;51.508;7.966;2022-09-16T07:59:24;10.20;;;6.60;;
6105;SDS011;3083;51.508;7.966;2022-09-16T08:01:51;8.73;;;5.70;;
6105;SDS011;3083;51.508;7.966;2022-09-16T08:04:18;12.23;;;5.37;;
6105;SDS011;3083;51.508;7.966;2022-09-16T08:06:45;10.03;;;6.50;;
6105;SDS011;3083;51.508;7.966;2022-09-16T08:09:13;9.37;;;5.20;;
6105;SDS011;3083;51.508;7.966;2022-09-16T08:11:40;7.93;;;4.30;;
6105;SDS011;3083;51.508;7.966;2022-09-16T08:14:07;7.93;;;3.40;;
6105;SDS011;3083;51.508;7.966;2022-09-16T08:16:34;9.50;;;4.43;;
6105;SDS011;3083;51.508;7.966;2022-09-16T08:19:01;6.80;;;3.20;;
6105;SDS011;3083;51.508;7.966;2022-09-16T08:21:28;4.80;;;2.77;;
6105;SDS011;3083;51.508;7.966;2022-09-16T08:23:55;6.87;;;3.37;;
6105;SDS011;3083;51.508;7.966;2022-09-16T08:26:24;5.77;;;3.50;;
6105;SDS011;3083;51.508;7.966;2022-09-16T08:28:51;7.47;;;3.60;;
6105;SDS011;3083;51.508;7.966;2022-09-16T08:31:18;7.27;;;2.90;;
6105;SDS011;3083;51.508;7.966;2022-09-16T08:33:45;7.33;;;2.90;;
6105;SDS011;3083;51.508;7.966;2022-09-16T08:36:13;9.10;;;2.53;;
6105;SDS011;3083;51.508;7.966;2022-09-16T08:38:43;3.60;;;2.20;;
6105;SDS011;3083;51.508;7.966;2022-09-16T08:41:18;4.70;;;2.37;;
6105;SDS011;3083;51.508;7.966;2022-09-16T08:44:15;3.90;;;2.70;;
6105;SDS011;3083;51.508;7.966;2022-09-16T08:46:50;6.97;;;2.90;;
6105;SDS011;3083;51.508;7.966;2022-09-16T08:49:20;5.80;;;3.10;;
6105;SDS011;3083;51.508;7.966;2022-09-16T08:51:55;5.57;;;2.87;;
6105;SDS011;3083;51.508;7.966;2022-09-16T08:54:25;5.63;;;3.10;;
6105;SDS011;3083;51.508;7.966;2022-09-16T08:56:58;7.43;;;3.10;;
6105;SDS011;3083;51.508;7.966;2022-09-16T08:59:27;8.00;;;3.20;;
6105;SDS011;3083;51.508;7.966;2022-09-16T09:02:01;7.30;;;3.30;;
6105;SDS011;3083;51.508;7.966;2022-09-16T09:04:43;9.93;;;2.53;;
6105;SDS011;3083;51.508;7.966;2022-09-16T09:07:14;7.50;;;2.90;;
6105;SDS011;3083;51.508;7.966;2022-09-16T09:09:49;6.67;;;3.07;;
6105;SDS011;3083;51.508;7.966;2022-09-16T09:12:29;9.60;;;2.97;;
6105;SDS011;3083;51.508;7.966;2022-09-16T09:18:03;7.80;;;3.20;;
6105;SDS011;3083;51.508;7.966;2022-09-16T09:20:49;7.10;;;2.93;;
6105;SDS011;3083;51.508;7.966;2022-09-16T09:23:26;5.00;;;2.87;;
6105;SDS011;3083;51.508;7.966;2022-09-16T09:26:03;7.00;;;3.23;;
6105;SDS011;3083;51.508;7.966;2022-09-16T09:28:44;5.80;;;3.20;;
6105;SDS011;3083;51.508;7.966;2022-09-16T09:31:29;4.57;;;3.00;;
6105;SDS011;3083;51.508;7.966;2022-09-16T09:34:06;8.13;;;3.43;;
6105;SDS011;3083;51.508;7.966;2022-09-16T09:36:51;5.80;;;3.50;;
6105;SDS011;3083;51.508;7.966;2022-09-16T09:39:30;7.67;;;3.57;;
6105;SDS011;3083;51.508;7.966;2022-09-16T09:42:09;5.73;;;3.33;;
6105;SDS011;3083;51.508;7.966;2022-09-16T09:44:49;5.83;;;2.70;;
6105;SDS011;3083;51.508;7.966;2022-09-16T09:47:22;6.57;;;3.10;;
6105;SDS011;3083;51.508;7.966;2022-09-16T09:49:54;7.93;;;2.90;;
6105;SDS011;3083;51.508;7.966;2022-09-16T09:52:24;6.43;;;3.00;;
6105;SDS011;3083;51.508;7.966;2022-09-16T09:54:55;4.40;;;2.27;;
6105;SDS011;3083;51.508;7.966;2022-09-16T09:57:30;4.30;;;1.90;;
6105;SDS011;3083;51.508;7.966;2022-09-16T10:00:04;9.13;;;2.43;;
6105;SDS011;3083;51.508;7.966;2022-09-16T10:02:38;5.90;;;1.80;;
6105;SDS011;3083;51.508;7.966;2022-09-16T10:05:08;3.93;;;2.33;;
6105;SDS011;3083;51.508;7.966;2022-09-16T10:07:43;5.27;;;3.47;;
6105;SDS011;3083;51.508;7.966;2022-09-16T10:10:11;7.07;;;2.77;;
6105;SDS011;3083;51.508;7.966;2022-09-16T10:12:41;3.47;;;2.27;;
6105;SDS011;3083;51.508;7.966;2022-09-16T10:15:19;4.80;;;1.90;;
6105;SDS011;3083;51.508;7.966;2022-09-16T10:17:47;4.80;;;2.30;;
6105;SDS011;3083;51.508;7.966;2022-09-16T10:20:24;6.33;;;1.87;;
6105;SDS011;3083;51.508;7.966;2022-09-16T10:22:54;4.70;;;1.80;;
6105;SDS011;3083;51.508;7.966;2022-09-16T10:25:25;4.77;;;2.17;;
6105;SDS011;3083;51.508;7.966;2022-09-16T10:27:55;5.10;;;2.43;;
6105;SDS011;3083;51.508;7.966;2022-09-16T10:30:26;5.97;;;2.13;;
6105;SDS011;3083;51.508;7.966;2022-09-16T10:32:58;5.70;;;2.27;;
6105;SDS011;3083;51.508;7.966;2022-09-16T10:35:27;4.60;;;1.97;;
6105;SDS011;3083;51.508;7.966;2022-09-16T10:37:56;6.60;;;1.90;;
6105;SDS011;3083;51.508;7.966;2022-09-16T10:40:26;7.13;;;2.60;;
6105;SDS011;3083;51.508;7.966;2022-09-16T10:42:55;5.03;;;2.13;;
6105;SDS011;3083;51.508;7.966;2022-09-16T10:45:28;8.83;;;2.03;;
6105;SDS011;3083;51.508;7.966;2022-09-16T10:47:57;5.10;;;1.50;;
6105;SDS011;3083;51.508;7.966;2022-09-16T10:50:25;6.47;;;1.80;;
6105;SDS011;3083;51.508;7.966;2022-09-16T10:52:52;5.40;;;1.43;;
6105;SDS011;3083;51.508;7.966;2022-09-16T10:55:21;4.90;;;1.57;;
6105;SDS011;3083;51.508;7.966;2022-09-16T10:57:51;6.90;;;1.70;;
6105;SDS011;3083;51.508;7.966;2022-09-16T11:00:19;5.53;;;1.47;;
6105;SDS011;3083;51.508;7.966;2022-09-16T11:06:01;3.57;;;1.27;;
6105;SDS011;3083;51.508;7.966;2022-09-16T11:08:43;4.20;;;1.20;;
6105;SDS011;3083;51.508;7.966;2022-09-16T11:11:20;8.83;;;1.57;;
6105;SDS011;3083;51.508;7.966;2022-09-16T11:14:00;4.27;;;1.40;;
6105;SDS011;3083;51.508;7.966;2022-09-16T11:16:43;4.43;;;1.30;;
6105;SDS011;3083;51.508;7.966;2022-09-16T11:19:22;12.13;;;1.80;;
6105;SDS011;3083;51.508;7.966;2022-09-16T11:22:05;7.63;;;1.50;;
6105;SDS011;3083;51.508;7.966;2022-09-16T11:27:42;5.97;;;1.70;;
6105;SDS011;3083;51.508;7.966;2022-09-16T11:30:16;4.77;;;1.37;;
6105;SDS011;3083;51.508;7.966;2022-09-16T11:32:54;4.20;;;1.23;;
6105;SDS011;3083;51.508;7.966;2022-09-16T11:35:38;3.63;;;1.00;;
6105;SDS011;3083;51.508;7.966;2022-09-16T11:38:15;3.63;;;1.10;;
6105;SDS011;3083;51.508;7.966;2022-09-16T11:40:54;7.17;;;1.30;;
6105;SDS011;3083;51.508;7.966;2022-09-16T11:43:38;3.03;;;1.10;;
6105;SDS011;3083;51.508;7.966;2022-09-16T11:46:17;2.90;;;1.27;;
6105;SDS011;3083;51.508;7.966;2022-09-16T11:48:55;2.57;;;1.00;;
6105;SDS011;3083;51.508;7.966;2022-09-16T11:51:38;3.17;;;1.10;;
6105;SDS011;3083;51.508;7.966;2022-09-16T11:54:25;2.50;;;0.80;;
6105;SDS011;3083;51.508;7.966;2022-09-16T11:57:01;3.13;;;0.97;;
6105;SDS011;3083;51.508;7.966;2022-09-16T11:59:31;3.43;;;1.00;;
6105;SDS011;3083;51.508;7.966;2022-09-16T12:02:06;4.40;;;1.40;;
6105;SDS011;3083;51.508;7.966;2022-09-16T12:04:41;2.20;;;0.80;;
6105;SDS011;3083;51.508;7.966;2022-09-16T12:07:16;4.20;;;1.20;;
6105;SDS011;3083;51.508;7.966;2022-09-16T12:09:48;3.40;;;1.30;;
6105;SDS011;3083;51.508;7.966;2022-09-16T12:12:19;4.20;;;1.20;;
6105;SDS011;3083;51.508;7.966;2022-09-16T12:14:50;2.77;;;1.00;;
6105;SDS011;3083;51.508;7.966;2022-09-16T12:17:23;4.20;;;1.40;;
6105;SDS011;3083;51.508;7.966;2022-09-16T12:19:54;3.27;;;1.40;;
6105;SDS011;3083;51.508;7.966;2022-09-16T12:22:25;5.60;;;1.67;;
6105;SDS011;3083;51.508;7.966;2022-09-16T12:24:57;8.97;;;1.40;;
6105;SDS011;3083;51.508;7.966;2022-09-16T12:27:34;4.00;;;1.30;;
6105;SDS011;3083;51.508;7.966;2022-09-16T12:30:11;3.90;;;1.20;;
6105;SDS011;3083;51.508;7.966;2022-09-16T12:32:43;3.30;;;1.13;;
6105;SDS011;3083;51.508;7.966;2022-09-16T12:35:26;3.70;;;1.30;;
6105;SDS011;3083;51.508;7.966;2022-09-16T12:37:57;3.80;;;1.27;;
6105;SDS011;3083;51.508;7.966;2022-09-16T12:40:27;4.30;;;1.10;;
6105;SDS011;3083;51.508;7.966;2022-09-16T12:43:13;3.77;;;1.30;;
6105;SDS011;3083;51.508;7.966;2022-09-16T12:49:22;2.30;;;0.90;;
6105;SDS011;3083;51.508;7.966;2022-09-16T12:52:08;3.23;;;1.00;;
6105;SDS011;3083;51.508;7.966;2022-09-16T12:54:45;2.97;;;1.10;;
6105;SDS011;3083;51.508;7.966;2022-09-16T12:57:37;9.53;;;1.83;;
6105;SDS011;3083;51.508;7.966;2022-09-16T13:00:16;3.90;;;1.20;;
6105;SDS011;3083;51.508;7.966;2022-09-16T13:02:46;3.53;;;1.23;;
6105;SDS011;3083;51.508;7.966;2022-09-16T13:05:18;2.83;;;1.10;;
6105;SDS011;3083;51.508;7.966;2022-09-16T13:07:51;4.37;;;1.30;;
6105;SDS011;3083;51.508;7.966;2022-09-16T13:10:20;5.77;;;1.30;;
6105;SDS011;3083;51.508;7.966;2022-09-16T13:12:51;3.20;;;1.33;;
6105;SDS011;3083;51.508;7.966;2022-09-16T13:15:24;3.33;;;1.00;;
6105;SDS011;3083;51.508;7.966;2022-09-16T13:17:53;4.10;;;1.10;;
6105;SDS011;3083;51.508;7.966;2022-09-16T13:20:21;3.93;;;1.07;;
6105;SDS011;3083;51.508;7.966;2022-09-16T13:23:00;3.40;;;1.20;;
6105;SDS011;3083;51.508;7.966;2022-09-16T13:25:31;3.07;;;1.10;;
6105;SDS011;3083;51.508;7.966;2022-09-16T13:28:22;2.90;;;0.97;;
6105;SDS011;3083;51.508;7.966;2022-09-16T13:30:52;3.30;;;1.20;;
6105;SDS011;3083;51.508;7.966;2022-09-16T13:33:28;4.03;;;1.20;;
6105;SDS011;3083;51.508;7.966;2022-09-16T13:36:02;3.13;;;1.10;;
6105;SDS011;3083;51.508;7.966;2022-09-16T13:38:38;4.73;;;1.17;;
6105;SDS011;3083;51.508;7.966;2022-09-16T13:41:08;2.53;;;1.00;;
6105;SDS011;3083;51.508;7.966;2022-09-16T13:43:48;3.17;;;1.30;;
6105;SDS011;3083;51.508;7.966;2022-09-16T13:46:31;3.87;;;1.40;;
6105;SDS011;3083;51.508;7.966;2022-09-16T13:49:04;5.93;;;1.40;;
6105;SDS011;3083;51.508;7.966;2022-09-16T13:51:48;4.57;;;1.50;;
6105;SDS011;3083;51.508;7.966;2022-09-16T13:54:30;4.33;;;1.50;;
6105;SDS011;3083;51.508;7.966;2022-09-16T13:57:20;2.70;;;1.10;;
6105;SDS011;3083;51.508;7.966;2022-09-16T14:00:09;4.70;;;1.73;;
6105;SDS011;3083;51.508;7.966;2022-09-16T14:02:43;3.73;;;1.20;;
6105;SDS011;3083;51.508;7.966;2022-09-16T14:05:25;4.97;;;1.30;;
6105;SDS011;3083;51.508;7.966;2022-09-16T14:07:58;5.60;;;1.37;;
6105;SDS011;3083;51.508;7.966;2022-09-16T14:10:38;2.10;;;1.00;;
6105;SDS011;3083;51.508;7.966;2022-09-16T14:13:11;2.93;;;1.10;;
6105;SDS011;3083;51.508;7.966;2022-09-16T14:15:41;4.53;;;1.40;;
6105;SDS011;3083;51.508;7.966;2022-09-16T14:18:11;5.27;;;1.50;;
6105;SDS011;3083;51.508;7.966;2022-09-16T14:20:49;5.00;;;1.20;;
6105;SDS011;3083;51.508;7.966;2022-09-16T14:23:22;3.10;;;1.43;;
6105;SDS011;3083;51.508;7.966;2022-09-16T14:25:51;4.97;;;1.63;;
6105;SDS011;3083;51.508;7.966;2022-09-16T14:28:19;4.33;;;1.50;;
6105;SDS011;3083;51.508;7.966;2022-09-16T14:30:49;6.17;;;1.70;;
6105;SDS011;3083;51.508;7.966;2022-09-16T14:33:20;6.13;;;1.70;;
6105;SDS011;3083;51.508;7.966;2022-09-16T14:35:51;5.20;;;2.83;;
6105;SDS011;3083;51.508;7.966;2022-09-16T14:38:20;2.90;;;1.30;;
6105;SDS011;3083;51.508;7.966;2022-09-16T14:40:54;4.07;;;1.70;;
6105;SDS011;3083;51.508;7.966;2022-09-16T14:43:21;5.20;;;1.40;;
6105;SDS011;3083;51.508;7.966;2022-09-16T14:45:52;3.53;;;1.40;;
6105;SDS011;3083;51.508;7.966;2022-09-16T14:48:31;4.20;;;1.50;;
6105;SDS011;3083;51.508;7.966;2022-09-16T14:51:00;3.87;;;1.57;;
6105;SDS011;3083;51.508;7.966;2022-09-16T14:53:29;3.70;;;1.20;;
6105;SDS011;3083;51.508;7.966;2022-09-16T14:55:57;3.77;;;1.50;;
6105;SDS011;3083;51.508;7.966;2022-09-16T14:58:24;3.90;;;1.67;;
6105;SDS011;3083;51.508;7.966;2022-09-16T15:00:55;4.70;;;1.60;;
6105;SDS011;3083;51.508;7.966;2022-09-16T15:03:28;3.60;;;1.43;;
6105;SDS011;3083;51.508;7.966;2022-09-16T15:06:02;4.93;;;1.57;;
6105;SDS011;3083;51.508;7.966;2022-09-16T15:08:32;3.03;;;1.40;;
6105;SDS011;3083;51.508;7.966;2022-09-16T15:11:09;4.03;;;1.80;;
6105;SDS011;3083;51.508;7.966;2022-09-16T15:13:40;5.73;;;1.60;;
6105;SDS011;3083;51.508;7.966;2022-09-16T15:16:11;5.70;;;1.63;;
6105;SDS011;3083;51.508;7.966;2022-09-16T15:18:41;5.10;;;1.50;;
6105;SDS011;3083;51.508;7.966;2022-09-16T15:21:17;3.00;;;1.60;;
6105;SDS011;3083;51.508;7.966;2022-09-16T15:23:46;7.10;;;1.67;;
6105;SDS011;3083;51.508;7.966;2022-09-16T15:26:16;4.50;;;2.13;;
6105;SDS011;3083;51.508;7.966;2022-09-16T15:28:50;4.67;;;1.60;;
6105;SDS011;3083;51.508;7.966;2022-09-16T15:31:29;4.67;;;1.60;;
6105;SDS011;3083;51.508;7.966;2022-09-16T15:33:59;4.60;;;1.50;;
6105;SDS011;3083;51.508;7.966;2022-09-16T15:36:35;5.90;;;1.53;;
6105;SDS011;3083;51.508;7.966;2022-09-16T15:39:04;5.07;;;1.60;;
6105;SDS011;3083;51.508;7.966;2022-09-16T15:41:45;3.90;;;1.40;;
6105;SDS011;3083;51.508;7.966;2022-09-16T15:44:13;9.63;;;1.70;;
6105;SDS011;3083;51.508;7.966;2022-09-16T15:46:45;3.80;;;1.67;;
6105;SDS011;3083;51.508;7.966;2022-09-16T15:49:13;3.53;;;1.50;;
6105;SDS011;3083;51.508;7.966;2022-09-16T15:51:44;4.30;;;1.40;;
6105;SDS011;3083;51.508;7.966;2022-09-16T15:54:14;5.20;;;1.70;;
6105;SDS011;3083;51.508;7.966;2022-09-16T15:56:48;7.07;;;2.20;;
6105;SDS011;3083;51.508;7.966;2022-09-16T15:59:21;6.97;;;2.67;;
6105;SDS011;3083;51.508;7.966;2022-09-16T16:01:54;4.23;;;2.47;;